sensor_id;sensor_type;location;lat;lon;timestamp;P1;durP1;ratioP1;P2;durP2;ratioP2
1925;SDS011;964;42.606;23.588;2022-11-20T00:00:19;6.80;;;5.50;;
1925;SDS011;964;42.606;23.588;2022-11-20T00:02:46;7.03;;;5.23;;
1925;SDS011;964;42.606;23.588;2022-11-20T00:05:12;7.00;;;5.33;;
1925;SDS011;964;42.606;23.588;2022-11-20T00:07:39;5.97;;;4.90;;
1925;SDS011;964;42.606;23.588;2022-11-20T00:10:06;6.77;;;5.70;;
1925;SDS011;964;42.606;23.588;2022-11-20T00:12:33;7.97;;;4.90;;
1925;SDS011;964;42.606;23.588;2022-11-20T00:15:00;9.30;;;6.03;;
1925;SDS011;964;42.606;23.588;2022-11-20T00:17:28;8.77;;;6.13;;
1925;SDS011;964;42.606;23.588;2022-11-20T00:19:55;8.67;;;6.17;;
1925;SDS011;964;42.606;23.588;2022-11-20T00:22:22;7.73;;;5.77;;
1925;SDS011;964;42.606;23.588;2022-11-20T00:24:48;10.47;;;5.70;;
1925;SDS011;964;42.606;23.588;2022-11-20T00:27:15;6.97;;;5.80;;
1925;SDS011;964;42.606;23.588;2022-11-20T00:29:42;16.67;;;9.63;;
1925;SDS011;964;42.606;23.588;2022-11-20T00:32:08;14.47;;;7.27;;
1925;SDS011;964;42.606;23.588;2022-11-20T00:34:36;13.27;;;7.43;;
1925;SDS011;964;42.606;23.588;2022-11-20T00:37:03;10.80;;;6.07;;
1925;SDS011;964;42.606;23.588;2022-11-20T00:39:30;8.73;;;2.73;;
1925;SDS011;964;42.606;23.588;2022-11-20T00:41:56;7.23;;;4.40;;
1925;SDS011;964;42.606;23.588;2022-11-20T00:44:23;5.70;;;5.10;;
1925;SDS011;964;42.606;23.588;2022-11-20T00:46:50;5.20;;;4.53;;
1925;SDS011;964;42.606;23.588;2022-11-20T00:49:16;4.80;;;3.67;;
1925;SDS011;964;42.606;23.588;2022-11-20T00:51:44;7.80;;;4.53;;
1925;SDS011;964;42.606;23.588;2022-11-20T00:54:11;4.77;;;4.17;;
1925;SDS011;964;42.606;23.588;2022-11-20T00:56:38;4.60;;;3.60;;
1925;SDS011;964;42.606;23.588;2022-11-20T00:59:05;6.20;;;4.30;;
1925;SDS011;964;42.606;23.588;2022-11-20T01:01:31;7.20;;;5.50;;
1925;SDS011;964;42.606;23.588;2022-11-20T01:03:59;12.83;;;7.10;;
1925;SDS011;964;42.606;23.588;2022-11-20T01:06:27;12.13;;;7.30;;
1925;SDS011;964;42.606;23.588;2022-11-20T01:08:56;11.93;;;6.20;;
1925;SDS011;964;42.606;23.588;2022-11-20T01:11:25;14.87;;;7.27;;
1925;SDS011;964;42.606;23.588;2022-11-20T01:13:53;12.53;;;6.50;;
1925;SDS011;964;42.606;23.588;2022-11-20T01:16:22;14.23;;;8.87;;
1925;SDS011;964;42.606;23.588;2022-11-20T01:18:50;10.77;;;6.77;;
1925;SDS011;964;42.606;23.588;2022-11-20T01:21:18;7.67;;;5.03;;
1925;SDS011;964;42.606;23.588;2022-11-20T01:23:47;6.60;;;5.60;;
1925;SDS011;964;42.606;23.588;2022-11-20T01:26:16;8.70;;;5.03;;
1925;SDS011;964;42.606;23.588;2022-11-20T01:28:44;7.60;;;5.80;;
1925;SDS011;964;42.606;23.588;2022-11-20T01:31:12;13.50;;;8.00;;
1925;SDS011;964;42.606;23.588;2022-11-20T01:33:40;7.20;;;6.23;;
1925;SDS011;964;42.606;23.588;2022-11-20T01:36:08;8.13;;;6.97;;
1925;SDS011;964;42.606;23.588;2022-11-20T01:38:36;12.23;;;9.30;;
1925;SDS011;964;42.606;23.588;2022-11-20T01:41:03;17.10;;;11.13;;
1925;SDS011;964;42.606;23.588;2022-11-20T01:43:32;16.60;;;9.40;;
1925;SDS011;964;42.606;23.588;2022-11-20T01:46:00;16.00;;;9.10;;
1925;SDS011;964;42.606;23.588;2022-11-20T01:48:30;16.30;;;9.60;;
1925;SDS011;964;42.606;23.588;2022-11-20T01:51:02;14.67;;;9.30;;
1925;SDS011;964;42.606;23.588;2022-11-20T01:53:32;13.73;;;9.30;;
1925;SDS011;964;42.606;23.588;2022-11-20T01:56:05;18.63;;;12.00;;
1925;SDS011;964;42.606;23.588;2022-11-20T01:58:38;18.70;;;9.77;;
1925;SDS011;964;42.606;23.588;2022-11-20T02:01:09;10.17;;;6.80;;
1925;SDS011;964;42.606;23.588;2022-11-20T02:03:36;10.00;;;6.63;;
1925;SDS011;964;42.606;23.588;2022-11-20T02:06:04;8.10;;;6.30;;
1925;SDS011;964;42.606;23.588;2022-11-20T02:08:36;10.77;;;5.10;;
1925;SDS011;964;42.606;23.588;2022-11-20T02:11:04;9.63;;;6.50;;
1925;SDS011;964;42.606;23.588;2022-11-20T02:13:31;8.23;;;5.90;;
1925;SDS011;964;42.606;23.588;2022-11-20T02:16:12;8.03;;;6.10;;
1925;SDS011;964;42.606;23.588;2022-11-20T02:18:41;10.60;;;6.83;;
1925;SDS011;964;42.606;23.588;2022-11-20T02:21:10;12.10;;;6.70;;
1925;SDS011;964;42.606;23.588;2022-11-20T02:24:04;10.97;;;7.10;;
1925;SDS011;964;42.606;23.588;2022-11-20T02:26:34;9.87;;;6.10;;
1925;SDS011;964;42.606;23.588;2022-11-20T02:29:06;9.80;;;6.53;;
1925;SDS011;964;42.606;23.588;2022-11-20T02:31:36;8.07;;;5.50;;
1925;SDS011;964;42.606;23.588;2022-11-20T02:34:06;9.20;;;5.70;;
1925;SDS011;964;42.606;23.588;2022-11-20T02:36:33;8.40;;;5.83;;
1925;SDS011;964;42.606;23.588;2022-11-20T02:39:01;9.47;;;5.43;;
1925;SDS011;964;42.606;23.588;2022-11-20T02:41:36;7.10;;;6.23;;
1925;SDS011;964;42.606;23.588;2022-11-20T02:44:03;10.10;;;5.43;;
1925;SDS011;964;42.606;23.588;2022-11-20T02:46:31;5.50;;;3.47;;
1925;SDS011;964;42.606;23.588;2022-11-20T02:48:58;3.17;;;2.87;;
1925;SDS011;964;42.606;23.588;2022-11-20T02:51:26;5.83;;;2.70;;
1925;SDS011;964;42.606;23.588;2022-11-20T02:53:53;2.33;;;2.10;;
1925;SDS011;964;42.606;23.588;2022-11-20T02:56:19;3.23;;;2.30;;
1925;SDS011;964;42.606;23.588;2022-11-20T02:58:47;3.10;;;2.00;;
1925;SDS011;964;42.606;23.588;2022-11-20T03:01:14;7.50;;;2.50;;
1925;SDS011;964;42.606;23.588;2022-11-20T03:03:41;1.97;;;1.77;;
1925;SDS011;964;42.606;23.588;2022-11-20T03:06:07;3.00;;;1.80;;
1925;SDS011;964;42.606;23.588;2022-11-20T03:08:34;1.67;;;1.57;;
1925;SDS011;964;42.606;23.588;2022-11-20T03:11:02;3.50;;;1.63;;
1925;SDS011;964;42.606;23.588;2022-11-20T03:13:31;1.73;;;1.47;;
1925;SDS011;964;42.606;23.588;2022-11-20T03:16:04;3.00;;;1.30;;
1925;SDS011;964;42.606;23.588;2022-11-20T03:18:31;1.67;;;0.90;;
1925;SDS011;964;42.606;23.588;2022-11-20T03:20:58;2.43;;;1.07;;
1925;SDS011;964;42.606;23.588;2022-11-20T03:23:25;1.27;;;0.90;;
1925;SDS011;964;42.606;23.588;2022-11-20T03:25:54;3.07;;;1.00;;
1925;SDS011;964;42.606;23.588;2022-11-20T03:28:21;4.30;;;1.00;;
1925;SDS011;964;42.606;23.588;2022-11-20T03:30:47;1.63;;;0.90;;
1925;SDS011;964;42.606;23.588;2022-11-20T03:33:15;2.73;;;1.13;;
1925;SDS011;964;42.606;23.588;2022-11-20T03:35:42;1.93;;;1.20;;
1925;SDS011;964;42.606;23.588;2022-11-20T03:38:09;1.07;;;0.70;;
1925;SDS011;964;42.606;23.588;2022-11-20T03:40:35;1.57;;;0.80;;
1925;SDS011;964;42.606;23.588;2022-11-20T03:43:02;2.30;;;0.87;;
1925;SDS011;964;42.606;23.588;2022-11-20T03:45:29;1.53;;;0.97;;
1925;SDS011;964;42.606;23.588;2022-11-20T03:47:55;4.80;;;1.30;;
1925;SDS011;964;42.606;23.588;2022-11-20T03:50:24;1.00;;;0.80;;
1925;SDS011;964;42.606;23.588;2022-11-20T03:52:50;2.37;;;0.90;;
1925;SDS011;964;42.606;23.588;2022-11-20T03:55:17;2.90;;;0.80;;
1925;SDS011;964;42.606;23.588;2022-11-20T03:57:44;2.20;;;1.00;;
1925;SDS011;964;42.606;23.588;2022-11-20T04:00:11;0.80;;;0.60;;
1925;SDS011;964;42.606;23.588;2022-11-20T04:02:38;0.80;;;0.73;;
1925;SDS011;964;42.606;23.588;2022-11-20T04:05:05;1.77;;;0.90;;
1925;SDS011;964;42.606;23.588;2022-11-20T04:07:34;4.00;;;1.27;;
1925;SDS011;964;42.606;23.588;2022-11-20T04:10:01;2.27;;;0.67;;
1925;SDS011;964;42.606;23.588;2022-11-20T04:12:31;4.23;;;1.00;;
1925;SDS011;964;42.606;23.588;2022-11-20T04:14:58;3.57;;;1.33;;
1925;SDS011;964;42.606;23.588;2022-11-20T04:17:25;1.40;;;0.90;;
1925;SDS011;964;42.606;23.588;2022-11-20T04:19:51;3.73;;;1.07;;
1925;SDS011;964;42.606;23.588;2022-11-20T04:22:18;1.50;;;0.83;;
1925;SDS011;964;42.606;23.588;2022-11-20T04:24:46;1.40;;;0.93;;
1925;SDS011;964;42.606;23.588;2022-11-20T04:27:13;0.80;;;0.70;;
1925;SDS011;964;42.606;23.588;2022-11-20T04:29:39;3.57;;;0.90;;
1925;SDS011;964;42.606;23.588;2022-11-20T04:32:06;4.03;;;0.93;;
1925;SDS011;964;42.606;23.588;2022-11-20T04:34:33;1.67;;;1.00;;
1925;SDS011;964;42.606;23.588;2022-11-20T04:36:59;3.50;;;0.90;;
1925;SDS011;964;42.606;23.588;2022-11-20T04:39:26;2.70;;;0.80;;
1925;SDS011;964;42.606;23.588;2022-11-20T04:41:54;1.40;;;0.90;;
1925;SDS011;964;42.606;23.588;2022-11-20T04:44:34;2.17;;;0.87;;
1925;SDS011;964;42.606;23.588;2022-11-20T04:47:01;1.97;;;0.97;;
1925;SDS011;964;42.606;23.588;2022-11-20T04:49:28;1.10;;;0.70;;
1925;SDS011;964;42.606;23.588;2022-11-20T04:51:56;2.50;;;0.93;;
1925;SDS011;964;42.606;23.588;2022-11-20T04:54:23;2.13;;;0.90;;
1925;SDS011;964;42.606;23.588;2022-11-20T04:56:50;1.10;;;1.00;;
1925;SDS011;964;42.606;23.588;2022-11-20T04:59:18;1.23;;;0.80;;
1925;SDS011;964;42.606;23.588;2022-11-20T05:01:44;1.10;;;0.93;;
1925;SDS011;964;42.606;23.588;2022-11-20T05:04:11;1.23;;;0.87;;
1925;SDS011;964;42.606;23.588;2022-11-20T05:06:38;3.73;;;1.00;;
1925;SDS011;964;42.606;23.588;2022-11-20T05:09:04;2.93;;;1.10;;
1925;SDS011;964;42.606;23.588;2022-11-20T05:11:31;1.40;;;1.03;;
1925;SDS011;964;42.606;23.588;2022-11-20T05:13:58;2.80;;;0.90;;
1925;SDS011;964;42.606;23.588;2022-11-20T05:16:26;2.60;;;1.07;;
1925;SDS011;964;42.606;23.588;2022-11-20T05:18:53;0.90;;;0.70;;
1925;SDS011;964;42.606;23.588;2022-11-20T05:21:20;0.90;;;0.80;;
1925;SDS011;964;42.606;23.588;2022-11-20T05:23:47;1.33;;;1.00;;
1925;SDS011;964;42.606;23.588;2022-11-20T05:26:15;1.47;;;0.90;;
1925;SDS011;964;42.606;23.588;2022-11-20T05:28:43;2.37;;;1.23;;
1925;SDS011;964;42.606;23.588;2022-11-20T05:31:10;3.03;;;1.10;;
1925;SDS011;964;42.606;23.588;2022-11-20T05:33:40;3.60;;;1.30;;
1925;SDS011;964;42.606;23.588;2022-11-20T05:36:08;3.53;;;1.00;;
1925;SDS011;964;42.606;23.588;2022-11-20T05:38:35;1.47;;;1.10;;
1925;SDS011;964;42.606;23.588;2022-11-20T05:41:05;2.03;;;1.93;;
1925;SDS011;964;42.606;23.588;2022-11-20T05:43:32;1.23;;;1.07;;
1925;SDS011;964;42.606;23.588;2022-11-20T05:46:00;1.30;;;1.00;;
1925;SDS011;964;42.606;23.588;2022-11-20T05:48:26;0.90;;;0.80;;
1925;SDS011;964;42.606;23.588;2022-11-20T05:50:55;1.60;;;1.10;;
1925;SDS011;964;42.606;23.588;2022-11-20T05:53:23;3.30;;;1.30;;
1925;SDS011;964;42.606;23.588;2022-11-20T05:55:55;1.10;;;1.00;;
1925;SDS011;964;42.606;23.588;2022-11-20T05:58:23;4.70;;;1.20;;
1925;SDS011;964;42.606;23.588;2022-11-20T06:00:49;1.63;;;0.80;;
1925;SDS011;964;42.606;23.588;2022-11-20T06:03:16;5.70;;;1.00;;
1925;SDS011;964;42.606;23.588;2022-11-20T06:05:43;2.03;;;0.83;;
1925;SDS011;964;42.606;23.588;2022-11-20T06:08:11;3.73;;;1.10;;
1925;SDS011;964;42.606;23.588;2022-11-20T06:10:38;7.13;;;1.47;;
1925;SDS011;964;42.606;23.588;2022-11-20T06:13:04;1.77;;;0.97;;
1925;SDS011;964;42.606;23.588;2022-11-20T06:15:31;1.00;;;0.70;;
1925;SDS011;964;42.606;23.588;2022-11-20T06:17:58;6.50;;;1.27;;
1925;SDS011;964;42.606;23.588;2022-11-20T06:20:25;1.77;;;0.97;;
1925;SDS011;964;42.606;23.588;2022-11-20T06:22:51;1.70;;;1.03;;
1925;SDS011;964;42.606;23.588;2022-11-20T06:25:19;1.93;;;0.90;;
1925;SDS011;964;42.606;23.588;2022-11-20T06:27:46;1.20;;;1.10;;
1925;SDS011;964;42.606;23.588;2022-11-20T06:30:13;1.07;;;0.90;;
1925;SDS011;964;42.606;23.588;2022-11-20T06:32:39;1.77;;;1.20;;
1925;SDS011;964;42.606;23.588;2022-11-20T06:35:06;2.43;;;0.90;;
1925;SDS011;964;42.606;23.588;2022-11-20T06:37:34;2.53;;;1.10;;
1925;SDS011;964;42.606;23.588;2022-11-20T06:40:00;1.97;;;1.87;;
1925;SDS011;964;42.606;23.588;2022-11-20T06:42:28;0.90;;;0.80;;
1925;SDS011;964;42.606;23.588;2022-11-20T06:44:56;1.07;;;0.97;;
1925;SDS011;964;42.606;23.588;2022-11-20T06:47:23;2.23;;;0.90;;
1925;SDS011;964;42.606;23.588;2022-11-20T06:49:49;4.50;;;1.23;;
1925;SDS011;964;42.606;23.588;2022-11-20T06:52:16;2.60;;;1.07;;
1925;SDS011;964;42.606;23.588;2022-11-20T06:54:43;5.93;;;1.30;;
1925;SDS011;964;42.606;23.588;2022-11-20T06:57:09;2.43;;;1.30;;
1925;SDS011;964;42.606;23.588;2022-11-20T06:59:37;1.53;;;1.20;;
1925;SDS011;964;42.606;23.588;2022-11-20T07:02:04;1.40;;;1.00;;
1925;SDS011;964;42.606;23.588;2022-11-20T07:04:31;2.93;;;1.30;;
1925;SDS011;964;42.606;23.588;2022-11-20T07:06:57;6.63;;;2.10;;
1925;SDS011;964;42.606;23.588;2022-11-20T07:09:24;1.93;;;1.30;;
1925;SDS011;964;42.606;23.588;2022-11-20T07:11:51;1.10;;;0.90;;
1925;SDS011;964;42.606;23.588;2022-11-20T07:14:17;2.30;;;1.27;;
1925;SDS011;964;42.606;23.588;2022-11-20T07:16:45;4.47;;;1.03;;
1925;SDS011;964;42.606;23.588;2022-11-20T07:19:12;3.50;;;1.10;;
1925;SDS011;964;42.606;23.588;2022-11-20T07:21:39;2.27;;;0.90;;
1925;SDS011;964;42.606;23.588;2022-11-20T07:24:05;2.50;;;1.77;;
1925;SDS011;964;42.606;23.588;2022-11-20T07:26:32;2.30;;;0.70;;
1925;SDS011;964;42.606;23.588;2022-11-20T07:28:59;1.43;;;0.70;;
1925;SDS011;964;42.606;23.588;2022-11-20T07:31:25;2.03;;;1.27;;
1925;SDS011;964;42.606;23.588;2022-11-20T07:33:53;1.77;;;1.00;;
1925;SDS011;964;42.606;23.588;2022-11-20T07:36:21;2.27;;;1.40;;
1925;SDS011;964;42.606;23.588;2022-11-20T07:38:47;3.33;;;1.57;;
1925;SDS011;964;42.606;23.588;2022-11-20T07:41:14;3.20;;;1.37;;
1925;SDS011;964;42.606;23.588;2022-11-20T07:43:41;1.13;;;1.03;;
1925;SDS011;964;42.606;23.588;2022-11-20T07:46:07;1.70;;;0.87;;
1925;SDS011;964;42.606;23.588;2022-11-20T07:48:34;0.93;;;0.87;;
1925;SDS011;964;42.606;23.588;2022-11-20T07:51:02;2.60;;;0.93;;
1925;SDS011;964;42.606;23.588;2022-11-20T07:53:29;1.53;;;1.00;;
1925;SDS011;964;42.606;23.588;2022-11-20T07:55:58;1.87;;;1.57;;
1925;SDS011;964;42.606;23.588;2022-11-20T07:58:26;2.67;;;1.73;;
1925;SDS011;964;42.606;23.588;2022-11-20T08:00:52;3.87;;;1.93;;
1925;SDS011;964;42.606;23.588;2022-11-20T08:03:19;4.83;;;1.50;;
1925;SDS011;964;42.606;23.588;2022-11-20T08:05:46;4.70;;;1.93;;
1925;SDS011;964;42.606;23.588;2022-11-20T08:08:14;2.20;;;1.73;;
1925;SDS011;964;42.606;23.588;2022-11-20T08:10:40;2.30;;;1.70;;
1925;SDS011;964;42.606;23.588;2022-11-20T08:13:08;2.70;;;1.97;;
1925;SDS011;964;42.606;23.588;2022-11-20T08:15:52;2.03;;;1.80;;
1925;SDS011;964;42.606;23.588;2022-11-20T08:18:18;2.90;;;1.40;;
1925;SDS011;964;42.606;23.588;2022-11-20T08:20:45;2.97;;;1.80;;
1925;SDS011;964;42.606;23.588;2022-11-20T08:23:14;3.63;;;1.40;;
1925;SDS011;964;42.606;23.588;2022-11-20T08:25:40;5.23;;;1.97;;
1925;SDS011;964;42.606;23.588;2022-11-20T08:28:08;3.80;;;1.80;;
1925;SDS011;964;42.606;23.588;2022-11-20T08:30:35;3.50;;;2.00;;
1925;SDS011;964;42.606;23.588;2022-11-20T08:33:03;2.40;;;2.20;;
1925;SDS011;964;42.606;23.588;2022-11-20T08:35:32;3.87;;;2.47;;
1925;SDS011;964;42.606;23.588;2022-11-20T08:38:00;2.10;;;1.90;;
1925;SDS011;964;42.606;23.588;2022-11-20T08:40:28;8.27;;;3.80;;
1925;SDS011;964;42.606;23.588;2022-11-20T08:42:55;4.63;;;2.80;;
1925;SDS011;964;42.606;23.588;2022-11-20T08:45:21;5.40;;;2.90;;
1925;SDS011;964;42.606;23.588;2022-11-20T08:47:48;4.33;;;3.00;;
1925;SDS011;964;42.606;23.588;2022-11-20T08:50:15;2.67;;;2.00;;
1925;SDS011;964;42.606;23.588;2022-11-20T08:52:43;3.50;;;2.57;;
1925;SDS011;964;42.606;23.588;2022-11-20T08:55:10;4.30;;;3.03;;
1925;SDS011;964;42.606;23.588;2022-11-20T08:57:38;3.23;;;2.63;;
1925;SDS011;964;42.606;23.588;2022-11-20T09:00:06;4.23;;;3.37;;
1925;SDS011;964;42.606;23.588;2022-11-20T09:02:34;4.23;;;3.40;;
1925;SDS011;964;42.606;23.588;2022-11-20T09:05:00;8.30;;;4.10;;
1925;SDS011;964;42.606;23.588;2022-11-20T09:07:28;4.40;;;3.13;;
1925;SDS011;964;42.606;23.588;2022-11-20T09:09:55;8.50;;;4.20;;
1925;SDS011;964;42.606;23.588;2022-11-20T09:12:22;8.27;;;4.43;;
1925;SDS011;964;42.606;23.588;2022-11-20T09:14:50;6.40;;;3.17;;
1925;SDS011;964;42.606;23.588;2022-11-20T09:17:16;2.43;;;2.20;;
1925;SDS011;964;42.606;23.588;2022-11-20T09:19:44;4.47;;;2.97;;
1925;SDS011;964;42.606;23.588;2022-11-20T09:22:10;3.33;;;2.13;;
1925;SDS011;964;42.606;23.588;2022-11-20T09:24:37;4.30;;;2.70;;
1925;SDS011;964;42.606;23.588;2022-11-20T09:27:04;7.93;;;3.30;;
1925;SDS011;964;42.606;23.588;2022-11-20T09:29:31;5.37;;;3.23;;
1925;SDS011;964;42.606;23.588;2022-11-20T09:31:59;6.07;;;3.77;;
1925;SDS011;964;42.606;23.588;2022-11-20T09:34:26;4.50;;;4.07;;
1925;SDS011;964;42.606;23.588;2022-11-20T09:36:52;5.70;;;2.60;;
1925;SDS011;964;42.606;23.588;2022-11-20T09:39:19;3.67;;;2.93;;
1925;SDS011;964;42.606;23.588;2022-11-20T09:41:53;6.73;;;5.70;;
1925;SDS011;964;42.606;23.588;2022-11-20T09:44:33;5.53;;;4.40;;
1925;SDS011;964;42.606;23.588;2022-11-20T09:47:11;8.87;;;4.97;;
1925;SDS011;964;42.606;23.588;2022-11-20T09:49:51;8.00;;;4.33;;
1925;SDS011;964;42.606;23.588;2022-11-20T09:52:30;7.60;;;4.50;;
1925;SDS011;964;42.606;23.588;2022-11-20T09:55:08;5.03;;;3.03;;
1925;SDS011;964;42.606;23.588;2022-11-20T09:57:37;5.53;;;2.63;;
1925;SDS011;964;42.606;23.588;2022-11-20T10:00:09;5.60;;;2.50;;
1925;SDS011;964;42.606;23.588;2022-11-20T10:02:39;3.83;;;2.90;;
1925;SDS011;964;42.606;23.588;2022-11-20T10:05:11;4.73;;;3.07;;
1925;SDS011;964;42.606;23.588;2022-11-20T10:07:42;7.20;;;3.90;;
1925;SDS011;964;42.606;23.588;2022-11-20T10:10:14;4.30;;;3.40;;
1925;SDS011;964;42.606;23.588;2022-11-20T10:12:46;5.97;;;4.10;;
1925;SDS011;964;42.606;23.588;2022-11-20T10:15:26;4.93;;;4.23;;
1925;SDS011;964;42.606;23.588;2022-11-20T10:18:11;5.50;;;3.33;;
1925;SDS011;964;42.606;23.588;2022-11-20T10:20:50;7.23;;;3.40;;
1925;SDS011;964;42.606;23.588;2022-11-20T10:23:28;2.80;;;2.37;;
1925;SDS011;964;42.606;23.588;2022-11-20T10:26:11;4.77;;;2.40;;
1925;SDS011;964;42.606;23.588;2022-11-20T10:28:46;6.87;;;3.10;;
1925;SDS011;964;42.606;23.588;2022-11-20T10:31:26;3.90;;;2.30;;
1925;SDS011;964;42.606;23.588;2022-11-20T10:33:58;4.43;;;3.17;;
1925;SDS011;964;42.606;23.588;2022-11-20T10:36:30;5.93;;;3.80;;
1925;SDS011;964;42.606;23.588;2022-11-20T10:39:03;8.60;;;6.67;;
1925;SDS011;964;42.606;23.588;2022-11-20T10:41:34;10.07;;;8.03;;
1925;SDS011;964;42.606;23.588;2022-11-20T10:44:09;6.70;;;5.17;;
1925;SDS011;964;42.606;23.588;2022-11-20T10:47:01;6.30;;;5.70;;
1925;SDS011;964;42.606;23.588;2022-11-20T10:49:30;8.50;;;5.43;;
1925;SDS011;964;42.606;23.588;2022-11-20T10:52:02;7.60;;;3.60;;
1925;SDS011;964;42.606;23.588;2022-11-20T10:54:36;9.03;;;6.10;;
1925;SDS011;964;42.606;23.588;2022-11-20T10:57:13;7.57;;;5.30;;
1925;SDS011;964;42.606;23.588;2022-11-20T10:59:56;9.03;;;4.10;;
1925;SDS011;964;42.606;23.588;2022-11-20T11:02:32;6.40;;;4.97;;
1925;SDS011;964;42.606;23.588;2022-11-20T11:05:07;10.67;;;6.13;;
1925;SDS011;964;42.606;23.588;2022-11-20T11:07:39;4.00;;;3.00;;
1925;SDS011;964;42.606;23.588;2022-11-20T11:10:13;6.73;;;4.73;;
1925;SDS011;964;42.606;23.588;2022-11-20T11:12:43;6.40;;;3.87;;
1925;SDS011;964;42.606;23.588;2022-11-20T11:15:12;7.90;;;3.80;;
1925;SDS011;964;42.606;23.588;2022-11-20T11:17:46;4.33;;;2.90;;
1925;SDS011;964;42.606;23.588;2022-11-20T11:20:17;5.63;;;3.60;;
1925;SDS011;964;42.606;23.588;2022-11-20T11:22:46;4.33;;;3.23;;
1925;SDS011;964;42.606;23.588;2022-11-20T11:25:24;3.00;;;2.17;;
1925;SDS011;964;42.606;23.588;2022-11-20T11:27:54;4.03;;;2.80;;
1925;SDS011;964;42.606;23.588;2022-11-20T11:30:23;2.40;;;1.97;;
1925;SDS011;964;42.606;23.588;2022-11-20T11:33:01;4.73;;;2.10;;
1925;SDS011;964;42.606;23.588;2022-11-20T11:35:31;2.63;;;1.50;;
1925;SDS011;964;42.606;23.588;2022-11-20T11:38:02;3.63;;;2.20;;
1925;SDS011;964;42.606;23.588;2022-11-20T11:40:32;2.50;;;1.90;;
1925;SDS011;964;42.606;23.588;2022-11-20T11:43:03;3.53;;;2.00;;
1925;SDS011;964;42.606;23.588;2022-11-20T11:45:52;5.00;;;2.87;;
1925;SDS011;964;42.606;23.588;2022-11-20T11:48:19;5.63;;;3.10;;
1925;SDS011;964;42.606;23.588;2022-11-20T11:50:49;8.73;;;3.83;;
1925;SDS011;964;42.606;23.588;2022-11-20T11:53:17;4.30;;;3.40;;
1925;SDS011;964;42.606;23.588;2022-11-20T11:55:46;7.47;;;3.47;;
1925;SDS011;964;42.606;23.588;2022-11-20T11:58:22;6.43;;;3.97;;
1925;SDS011;964;42.606;23.588;2022-11-20T12:01:01;7.73;;;3.53;;
1925;SDS011;964;42.606;23.588;2022-11-20T12:03:35;12.93;;;4.23;;
1925;SDS011;964;42.606;23.588;2022-11-20T12:06:06;5.13;;;3.10;;
1925;SDS011;964;42.606;23.588;2022-11-20T12:08:41;6.83;;;3.77;;
1925;SDS011;964;42.606;23.588;2022-11-20T12:11:12;12.73;;;4.90;;
1925;SDS011;964;42.606;23.588;2022-11-20T12:13:44;10.53;;;6.00;;
1925;SDS011;964;42.606;23.588;2022-11-20T12:16:17;8.50;;;5.23;;
1925;SDS011;964;42.606;23.588;2022-11-20T12:18:46;8.77;;;6.00;;
1925;SDS011;964;42.606;23.588;2022-11-20T12:21:20;7.13;;;5.70;;
1925;SDS011;964;42.606;23.588;2022-11-20T12:26:51;8.00;;;5.97;;
1925;SDS011;964;42.606;23.588;2022-11-20T12:29:32;9.53;;;6.90;;
1925;SDS011;964;42.606;23.588;2022-11-20T12:32:22;13.57;;;5.70;;
1925;SDS011;964;42.606;23.588;2022-11-20T12:35:17;8.10;;;7.30;;
1925;SDS011;964;42.606;23.588;2022-11-20T12:38:03;13.23;;;8.27;;
1925;SDS011;964;42.606;23.588;2022-11-20T12:40:46;18.33;;;13.00;;
1925;SDS011;964;42.606;23.588;2022-11-20T12:43:22;5.90;;;3.13;;
1925;SDS011;964;42.606;23.588;2022-11-20T12:46:12;2.77;;;0.97;;
1925;SDS011;964;42.606;23.588;2022-11-20T12:48:50;1.63;;;1.00;;
1925;SDS011;964;42.606;23.588;2022-11-20T12:57:15;2.10;;;1.83;;
1925;SDS011;964;42.606;23.588;2022-11-20T12:59:58;1.27;;;1.17;;
1925;SDS011;964;42.606;23.588;2022-11-20T13:02:35;2.67;;;1.23;;
1925;SDS011;964;42.606;23.588;2022-11-20T13:05:15;4.03;;;1.30;;
1925;SDS011;964;42.606;23.588;2022-11-20T13:07:46;5.13;;;1.20;;
1925;SDS011;964;42.606;23.588;2022-11-20T13:10:17;6.77;;;4.20;;
1925;SDS011;964;42.606;23.588;2022-11-20T13:12:48;17.57;;;11.17;;
1925;SDS011;964;42.606;23.588;2022-11-20T13:15:23;12.23;;;7.30;;
1925;SDS011;964;42.606;23.588;2022-11-20T13:18:11;5.73;;;4.47;;
1925;SDS011;964;42.606;23.588;2022-11-20T13:20:42;10.83;;;5.77;;
1925;SDS011;964;42.606;23.588;2022-11-20T13:23:10;8.07;;;5.27;;
1925;SDS011;964;42.606;23.588;2022-11-20T13:25:38;5.03;;;3.83;;
1925;SDS011;964;42.606;23.588;2022-11-20T13:30:53;5.17;;;3.60;;
1925;SDS011;964;42.606;23.588;2022-11-20T13:33:22;16.50;;;9.13;;
1925;SDS011;964;42.606;23.588;2022-11-20T13:35:55;12.27;;;7.83;;
1925;SDS011;964;42.606;23.588;2022-11-20T13:38:23;18.63;;;9.57;;
1925;SDS011;964;42.606;23.588;2022-11-20T13:40:52;18.07;;;7.70;;
1925;SDS011;964;42.606;23.588;2022-11-20T13:43:27;31.60;;;14.70;;
1925;SDS011;964;42.606;23.588;2022-11-20T13:46:00;15.83;;;10.20;;
1925;SDS011;964;42.606;23.588;2022-11-20T13:48:29;15.07;;;10.30;;
1925;SDS011;964;42.606;23.588;2022-11-20T13:51:01;15.10;;;8.87;;
1925;SDS011;964;42.606;23.588;2022-11-20T13:53:37;12.60;;;7.90;;
1925;SDS011;964;42.606;23.588;2022-11-20T13:56:19;10.00;;;7.50;;
1925;SDS011;964;42.606;23.588;2022-11-20T13:58:57;6.70;;;5.13;;
1925;SDS011;964;42.606;23.588;2022-11-20T14:01:31;18.17;;;13.50;;
1925;SDS011;964;42.606;23.588;2022-11-20T14:03:59;12.53;;;9.20;;
1925;SDS011;964;42.606;23.588;2022-11-20T14:06:34;76.47;;;49.30;;
1925;SDS011;964;42.606;23.588;2022-11-20T14:09:10;21.90;;;11.60;;
1925;SDS011;964;42.606;23.588;2022-11-20T14:11:45;9.50;;;6.03;;
1925;SDS011;964;42.606;23.588;2022-11-20T14:14:13;12.40;;;6.90;;
1925;SDS011;964;42.606;23.588;2022-11-20T14:16:41;16.67;;;10.40;;
1925;SDS011;964;42.606;23.588;2022-11-20T14:22:07;20.03;;;12.20;;
1925;SDS011;964;42.606;23.588;2022-11-20T14:24:43;19.63;;;9.93;;
1925;SDS011;964;42.606;23.588;2022-11-20T14:27:13;14.93;;;10.40;;
1925;SDS011;964;42.606;23.588;2022-11-20T14:29:41;15.07;;;9.67;;
1925;SDS011;964;42.606;23.588;2022-11-20T14:32:10;15.50;;;8.70;;
1925;SDS011;964;42.606;23.588;2022-11-20T14:34:41;12.77;;;8.73;;
1925;SDS011;964;42.606;23.588;2022-11-20T14:37:10;14.20;;;7.00;;
1925;SDS011;964;42.606;23.588;2022-11-20T14:39:40;6.13;;;5.00;;
1925;SDS011;964;42.606;23.588;2022-11-20T14:42:15;7.50;;;6.30;;
1925;SDS011;964;42.606;23.588;2022-11-20T14:44:43;7.70;;;5.80;;
1925;SDS011;964;42.606;23.588;2022-11-20T14:47:11;7.77;;;5.33;;
1925;SDS011;964;42.606;23.588;2022-11-20T14:49:39;5.17;;;4.00;;
1925;SDS011;964;42.606;23.588;2022-11-20T14:52:11;6.67;;;5.13;;
1925;SDS011;964;42.606;23.588;2022-11-20T14:54:44;12.03;;;8.30;;
1925;SDS011;964;42.606;23.588;2022-11-20T14:57:23;11.07;;;9.83;;
1925;SDS011;964;42.606;23.588;2022-11-20T15:00:03;9.23;;;8.33;;
1925;SDS011;964;42.606;23.588;2022-11-20T15:02:38;6.37;;;4.93;;
1925;SDS011;964;42.606;23.588;2022-11-20T15:05:05;10.60;;;4.50;;
1925;SDS011;964;42.606;23.588;2022-11-20T15:07:33;4.17;;;3.83;;
1925;SDS011;964;42.606;23.588;2022-11-20T15:10:02;5.17;;;4.10;;
1925;SDS011;964;42.606;23.588;2022-11-20T15:12:33;23.10;;;16.50;;
1925;SDS011;964;42.606;23.588;2022-11-20T15:15:02;36.30;;;26.60;;
1925;SDS011;964;42.606;23.588;2022-11-20T15:17:30;38.20;;;26.47;;
1925;SDS011;964;42.606;23.588;2022-11-20T15:19:57;42.50;;;25.40;;
1925;SDS011;964;42.606;23.588;2022-11-20T15:22:26;21.67;;;15.00;;
1925;SDS011;964;42.606;23.588;2022-11-20T15:24:52;78.97;;;41.83;;
1925;SDS011;964;42.606;23.588;2022-11-20T15:27:19;78.03;;;43.60;;
1925;SDS011;964;42.606;23.588;2022-11-20T15:29:47;89.17;;;49.20;;
1925;SDS011;964;42.606;23.588;2022-11-20T15:32:14;36.10;;;22.23;;
1925;SDS011;964;42.606;23.588;2022-11-20T15:34:41;13.00;;;9.33;;
1925;SDS011;964;42.606;23.588;2022-11-20T15:37:08;7.77;;;6.93;;
1925;SDS011;964;42.606;23.588;2022-11-20T15:39:34;2.80;;;1.93;;
1925;SDS011;964;42.606;23.588;2022-11-20T15:42:01;2.90;;;2.13;;